Time;durP1;ratioP1;P1;durP2;ratioP2;P2;SDS_P1;SDS_P2;PMS_P1;PMS_P2;Temp;Humidity;BMP_temperature;BMP_pressure;BME280_temperature;BME280_humidity;BME280_pressure;Samples;Min_cycle;Max_cycle;Signal;HPM_P1;HPM_P2
2021/12/02 00:01:16;;;;;;;3.00;2.70;;;;;;;;;;5036260;28;20033;-47
2021/12/02 00:03:42;;;;;;;2.60;2.00;;;;;;;;;;5037778;28;20053;-48
2021/12/02 00:06:10;;;;;;;3.85;2.65;;;;;;;;;;5036212;28;20335;-47
2021/12/02 00:08:36;;;;;;;2.67;2.15;;;;;;;;;;5036813;28;20040;-47
2021/12/02 00:11:02;;;;;;;3.55;2.65;;;;;;;;;;5036571;28;20116;-47
2021/12/02 00:13:29;;;;;;;2.75;2.30;;;;;;;;;;5035839;28;20090;-46
2021/12/02 00:16:07;;;;;;;3.65;3.25;;;;;;;;;;5033470;28;20371;-47
2021/12/02 00:21:03;;;;;;;2.92;2.40;;;;;;;;;;5036087;28;20540;-48
2021/12/02 00:21:20;;;;;;;2.72;2.00;;;;;;;;;;5035364;28;20036;-45
2021/12/02 00:24:08;;;;;;;2.60;1.95;;;;;;;;;;5037002;28;20040;-46
2021/12/02 00:26:36;;;;;;;2.60;2.10;;;;;;;;;;5039058;28;20037;-45
2021/12/02 00:29:04;;;;;;;2.90;2.28;;;;;;;;;;5037766;28;20069;-45
2021/12/02 00:31:32;;;;;;;5.80;3.50;;;;;;;;;;5035341;28;20344;-44
2021/12/02 00:34:02;;;;;;;2.53;1.88;;;;;;;;;;5035128;28;20041;-45
2021/12/02 00:36:31;;;;;;;2.60;2.08;;;;;;;;;;5035256;28;20124;-44
2021/12/02 00:38:59;;;;;;;2.60;2.08;;;;;;;;;;5035951;28;20029;-45
2021/12/02 00:41:27;;;;;;;3.03;2.50;;;;;;;;;;5041395;28;20497;-44
2021/12/02 00:43:55;;;;;;;2.60;2.00;;;;;;;;;;5038604;28;20037;-45
2021/12/02 00:46:22;;;;;;;2.83;2.42;;;;;;;;;;5035679;28;20463;-46
2021/12/02 00:48:49;;;;;;;2.70;2.30;;;;;;;;;;5037481;28;20061;-45
2021/12/02 00:51:16;;;;;;;2.70;2.28;;;;;;;;;;5035891;28;20059;-46
2021/12/02 00:53:45;;;;;;;2.60;2.10;;;;;;;;;;5040234;28;20361;-45
2021/12/02 00:56:16;;;;;;;2.65;2.13;;;;;;;;;;5035747;28;20590;-49
2021/12/02 00:58:48;;;;;;;6.17;3.07;;;;;;;;;;5035051;28;20488;-47
2021/12/02 01:01:15;;;;;;;2.70;2.03;;;;;;;;;;5036909;28;20298;-46
2021/12/02 01:03:41;;;;;;;3.10;2.60;;;;;;;;;;5039659;28;20033;-45
2021/12/02 01:06:07;;;;;;;2.80;2.22;;;;;;;;;;5036411;28;20044;-45
2021/12/02 01:08:34;;;;;;;3.15;2.40;;;;;;;;;;5035297;28;20542;-46
2021/12/02 01:10:59;;;;;;;3.38;2.17;;;;;;;;;;5040784;28;20033;-48
2021/12/02 01:13:24;;;;;;;6.72;2.55;;;;;;;;;;5033073;28;20043;-48
2021/12/02 01:15:50;;;;;;;6.15;2.55;;;;;;;;;;5035813;28;20041;-46
2021/12/02 01:18:17;;;;;;;2.97;2.58;;;;;;;;;;5038584;28;20324;-47
2021/12/02 01:20:46;;;;;;;2.70;2.33;;;;;;;;;;5032684;28;20044;-45
2021/12/02 01:23:11;;;;;;;2.92;2.10;;;;;;;;;;5033006;28;20041;-46
2021/12/02 01:25:38;;;;;;;2.60;2.15;;;;;;;;;;5035480;28;20099;-46
2021/12/02 01:28:04;;;;;;;2.97;2.58;;;;;;;;;;5039436;28;20141;-47
2021/12/02 01:30:31;;;;;;;2.92;2.38;;;;;;;;;;5036932;28;20040;-47
2021/12/02 01:33:00;;;;;;;2.83;2.45;;;;;;;;;;5034375;28;20033;-46
2021/12/02 01:35:27;;;;;;;2.78;2.28;;;;;;;;;;5031757;28;20131;-46
2021/12/02 01:37:53;;;;;;;2.80;2.30;;;;;;;;;;5035902;28;20045;-45
2021/12/02 01:40:18;;;;;;;2.60;2.13;;;;;;;;;;5038936;28;20395;-47
2021/12/02 01:42:46;;;;;;;2.80;2.35;;;;;;;;;;5034993;28;20426;-46
2021/12/02 01:45:15;;;;;;;2.70;2.20;;;;;;;;;;5037420;28;20087;-46
2021/12/02 01:47:47;;;;;;;2.70;2.22;;;;;;;;;;5034843;28;20128;-46
2021/12/02 01:50:15;;;;;;;2.70;2.15;;;;;;;;;;5036724;28;20367;-46
2021/12/02 01:52:43;;;;;;;2.55;2.00;;;;;;;;;;5034952;28;20032;-46
2021/12/02 01:55:14;;;;;;;2.60;2.03;;;;;;;;;;5038081;28;20463;-46
2021/12/02 01:57:46;;;;;;;2.80;2.25;;;;;;;;;;5037946;28;20454;-46
2021/12/02 02:00:19;;;;;;;6.85;2.50;;;;;;;;;;5032006;28;20037;-47
2021/12/02 02:02:45;;;;;;;3.00;2.13;;;;;;;;;;5035139;28;20033;-48
2021/12/02 02:05:13;;;;;;;2.70;2.30;;;;;;;;;;5030671;28;20044;-46
2021/12/02 02:08:02;;;;;;;2.95;2.53;;;;;;;;;;5036595;28;20068;-46
2021/12/02 02:10:30;;;;;;;2.75;2.33;;;;;;;;;;5033911;28;20033;-46
2021/12/02 02:12:58;;;;;;;2.70;2.28;;;;;;;;;;5037115;28;20036;-46
2021/12/02 02:15:26;;;;;;;3.05;2.45;;;;;;;;;;5033841;28;20064;-46
2021/12/02 02:18:02;;;;;;;6.43;2.78;;;;;;;;;;5035407;28;20341;-47
2021/12/02 02:23:22;;;;;;;2.60;1.98;;;;;;;;;;5035832;28;20034;-46
2021/12/02 02:25:48;;;;;;;2.72;2.30;;;;;;;;;;5036857;28;20033;-49
2021/12/02 02:28:14;;;;;;;3.00;2.42;;;;;;;;;;5035084;28;20538;-47
2021/12/02 02:30:41;;;;;;;2.60;2.03;;;;;;;;;;5033080;28;20129;-46
2021/12/02 02:33:06;;;;;;;2.85;2.15;;;;;;;;;;5036319;28;20033;-47
2021/12/02 02:35:32;;;;;;;2.90;2.60;;;;;;;;;;5033984;28;20040;-48
2021/12/02 02:37:59;;;;;;;2.60;1.98;;;;;;;;;;5032054;28;20450;-47
2021/12/02 02:40:25;;;;;;;2.45;1.83;;;;;;;;;;5034927;28;20593;-46
2021/12/02 02:42:57;;;;;;;2.75;2.30;;;;;;;;;;5035857;28;20029;-48
2021/12/02 02:45:23;;;;;;;2.63;2.10;;;;;;;;;;5035177;28;20084;-49
2021/12/02 02:47:48;;;;;;;2.80;2.38;;;;;;;;;;5035217;28;20026;-49
2021/12/02 02:50:15;;;;;;;2.70;2.10;;;;;;;;;;5033132;28;20056;-45
2021/12/02 02:52:41;;;;;;;2.70;2.03;;;;;;;;;;5038243;28;20037;-46
2021/12/02 02:55:08;;;;;;;3.58;2.80;;;;;;;;;;5035129;28;20047;-48
2021/12/02 02:57:40;;;;;;;2.88;2.05;;;;;;;;;;5032142;28;20144;-47
2021/12/02 03:00:13;;;;;;;2.80;2.30;;;;;;;;;;5033378;28;20052;-46
2021/12/02 03:02:57;;;;;;;5.35;2.53;;;;;;;;;;5035739;28;20111;-46
2021/12/02 03:05:44;;;;;;;2.55;2.03;;;;;;;;;;5036336;28;20041;-47
2021/12/02 03:08:13;;;;;;;2.67;2.28;;;;;;;;;;5035840;28;20371;-47
2021/12/02 03:10:48;;;;;;;2.50;1.90;;;;;;;;;;5036442;28;20033;-47
2021/12/02 03:13:22;;;;;;;2.70;2.30;;;;;;;;;;5034461;28;20076;-46
2021/12/02 03:18:34;;;;;;;3.60;2.58;;;;;;;;;;5033901;28;20111;-47
2021/12/02 03:21:00;;;;;;;3.38;2.70;;;;;;;;;;5035024;28;20033;-47
2021/12/02 03:23:25;;;;;;;2.63;2.13;;;;;;;;;;5035268;28;20044;-46
2021/12/02 03:25:51;;;;;;;2.55;1.90;;;;;;;;;;5036435;28;20029;-48
2021/12/02 03:28:16;;;;;;;2.60;2.08;;;;;;;;;;5034954;28;20029;-48
2021/12/02 03:30:41;;;;;;;2.80;2.35;;;;;;;;;;5035761;28;20482;-49
2021/12/02 03:33:07;;;;;;;2.60;2.20;;;;;;;;;;5040370;28;20068;-49
2021/12/02 03:35:32;;;;;;;2.60;2.20;;;;;;;;;;5032897;28;20078;-47
2021/12/02 03:37:58;;;;;;;2.60;2.10;;;;;;;;;;5035711;28;20524;-47
2021/12/02 03:40:23;;;;;;;2.50;2.00;;;;;;;;;;5036993;28;20029;-48
2021/12/02 03:42:52;;;;;;;2.63;2.13;;;;;;;;;;5036381;28;20179;-46
2021/12/02 03:45:18;;;;;;;2.70;2.20;;;;;;;;;;5035165;28;20029;-49
2021/12/02 03:47:44;;;;;;;4.57;2.17;;;;;;;;;;5032404;28;20030;-46
2021/12/02 03:50:10;;;;;;;2.63;2.13;;;;;;;;;;5032202;28;20056;-47
2021/12/02 03:52:35;;;;;;;2.67;2.08;;;;;;;;;;5032122;28;20434;-48
2021/12/02 03:55:01;;;;;;;2.60;2.00;;;;;;;;;;5034457;28;20029;-46
2021/12/02 03:57:28;;;;;;;3.78;2.30;;;;;;;;;;5031963;28;20038;-47
2021/12/02 03:59:54;;;;;;;2.63;2.17;;;;;;;;;;5033665;28;20379;-47
2021/12/02 04:02:20;;;;;;;2.70;2.30;;;;;;;;;;5034500;28;20036;-48
2021/12/02 04:04:45;;;;;;;4.35;2.33;;;;;;;;;;5033325;28;20017;-48
2021/12/02 04:07:10;;;;;;;3.63;2.42;;;;;;;;;;5037000;28;20374;-48
2021/12/02 04:09:40;;;;;;;2.90;2.38;;;;;;;;;;5034818;28;20252;-48
2021/12/02 04:12:13;;;;;;;2.85;2.40;;;;;;;;;;5040351;28;20032;-47
2021/12/02 04:14:53;;;;;;;2.90;2.53;;;;;;;;;;5037698;28;20364;-45
2021/12/02 04:17:28;;;;;;;2.78;2.33;;;;;;;;;;5040216;28;20186;-47
2021/12/02 04:19:53;;;;;;;3.13;2.35;;;;;;;;;;5036847;28;20021;-47
2021/12/02 04:22:19;;;;;;;2.70;2.25;;;;;;;;;;5041701;28;20056;-45
2021/12/02 04:24:44;;;;;;;3.00;2.70;;;;;;;;;;5037178;28;20025;-47
2021/12/02 04:27:09;;;;;;;2.53;2.03;;;;;;;;;;5039711;28;20063;-45
2021/12/02 04:29:35;;;;;;;2.78;2.28;;;;;;;;;;5037085;28;20033;-45
2021/12/02 04:32:00;;;;;;;3.25;2.20;;;;;;;;;;5034177;28;20384;-46
2021/12/02 04:34:26;;;;;;;2.80;2.22;;;;;;;;;;5035401;28;20029;-45
2021/12/02 04:36:51;;;;;;;2.60;1.95;;;;;;;;;;5038263;28;20521;-45
2021/12/02 04:39:17;;;;;;;4.00;2.30;;;;;;;;;;5031918;28;20042;-48
2021/12/02 04:41:43;;;;;;;2.58;1.98;;;;;;;;;;5036668;28;20028;-45
2021/12/02 04:44:08;;;;;;;2.72;2.25;;;;;;;;;;5034819;28;20036;-48
2021/12/02 04:46:34;;;;;;;2.60;2.10;;;;;;;;;;5036852;28;20042;-47
2021/12/02 04:48:59;;;;;;;2.90;2.47;;;;;;;;;;5039240;28;20433;-46
2021/12/02 04:51:25;;;;;;;2.55;2.03;;;;;;;;;;5036708;28;20543;-47
2021/12/02 04:53:50;;;;;;;9.05;2.25;;;;;;;;;;5039831;28;20048;-45
2021/12/02 04:56:16;;;;;;;2.70;2.33;;;;;;;;;;5037491;28;20065;-45
2021/12/02 04:58:41;;;;;;;3.00;2.25;;;;;;;;;;5036487;28;20120;-46
2021/12/02 05:01:06;;;;;;;3.40;2.58;;;;;;;;;;5038161;28;20065;-46
2021/12/02 05:03:32;;;;;;;2.60;2.10;;;;;;;;;;5035301;28;20038;-46
2021/12/02 05:05:57;;;;;;;2.50;1.90;;;;;;;;;;5036873;28;20439;-46
2021/12/02 05:08:22;;;;;;;3.05;2.20;;;;;;;;;;5037469;28;20124;-46
2021/12/02 05:10:48;;;;;;;2.60;2.05;;;;;;;;;;5041702;28;20043;-46
2021/12/02 05:13:13;;;;;;;2.63;2.10;;;;;;;;;;5037921;28;20037;-45
2021/12/02 05:15:39;;;;;;;2.70;2.20;;;;;;;;;;5034335;28;20059;-46
2021/12/02 05:18:04;;;;;;;2.50;1.90;;;;;;;;;;5035195;28;20041;-48
2021/12/02 05:20:30;;;;;;;2.53;2.00;;;;;;;;;;5036720;28;20029;-46
2021/12/02 05:22:56;;;;;;;2.70;2.35;;;;;;;;;;5038418;28;20359;-46
2021/12/02 05:25:21;;;;;;;3.30;2.78;;;;;;;;;;5038321;28;20029;-46
2021/12/02 05:27:47;;;;;;;2.60;2.00;;;;;;;;;;5034250;28;20033;-46
2021/12/02 05:30:12;;;;;;;2.60;2.00;;;;;;;;;;5035607;28;20497;-46
2021/12/02 05:32:38;;;;;;;3.00;2.47;;;;;;;;;;5039374;28;20048;-46
2021/12/02 05:35:05;;;;;;;2.50;1.90;;;;;;;;;;5034392;28;20059;-46
2021/12/02 05:37:30;;;;;;;2.85;2.55;;;;;;;;;;5036580;28;20131;-48
2021/12/02 05:39:55;;;;;;;2.65;2.17;;;;;;;;;;5035338;28;20443;-46
2021/12/02 05:42:21;;;;;;;3.33;2.50;;;;;;;;;;5034332;28;20040;-46
2021/12/02 05:44:46;;;;;;;2.80;2.40;;;;;;;;;;5033351;28;20367;-49
2021/12/02 05:47:12;;;;;;;2.70;2.05;;;;;;;;;;5034438;28;20037;-51
2021/12/02 05:49:38;;;;;;;12.63;2.53;;;;;;;;;;5035468;28;20451;-48
2021/12/02 05:52:03;;;;;;;2.65;2.15;;;;;;;;;;5031281;28;20037;-48
2021/12/02 05:54:29;;;;;;;2.65;2.22;;;;;;;;;;5036322;28;20045;-51
2021/12/02 05:56:54;;;;;;;2.90;2.35;;;;;;;;;;5036974;28;20017;-48
2021/12/02 05:59:20;;;;;;;2.80;2.30;;;;;;;;;;5034119;28;20036;-50
2021/12/02 06:01:45;;;;;;;3.25;2.90;;;;;;;;;;5036277;28;20072;-47
2021/12/02 06:04:11;;;;;;;2.80;2.30;;;;;;;;;;5035055;28;20047;-50
2021/12/02 06:06:37;;;;;;;2.88;2.33;;;;;;;;;;5030793;28;20463;-50
2021/12/02 06:09:04;;;;;;;2.90;2.38;;;;;;;;;;5038972;28;20043;-48
2021/12/02 06:11:29;;;;;;;2.78;2.40;;;;;;;;;;5036197;28;20030;-47
2021/12/02 06:13:55;;;;;;;10.98;2.47;;;;;;;;;;5032949;28;20450;-49
2021/12/02 06:16:23;;;;;;;2.70;2.13;;;;;;;;;;5034542;28;20029;-45
2021/12/02 06:18:48;;;;;;;2.88;2.30;;;;;;;;;;5033137;28;20025;-48
2021/12/02 06:21:14;;;;;;;3.60;2.53;;;;;;;;;;5033620;28;20040;-47
2021/12/02 06:23:41;;;;;;;2.72;2.35;;;;;;;;;;5033138;28;20109;-45
2021/12/02 06:26:07;;;;;;;2.70;2.30;;;;;;;;;;5033849;28;20083;-49
2021/12/02 06:28:33;;;;;;;2.90;2.60;;;;;;;;;;5029019;28;20047;-45
2021/12/02 06:31:01;;;;;;;4.25;2.38;;;;;;;;;;5037198;28;20037;-45
2021/12/02 06:33:28;;;;;;;2.95;2.50;;;;;;;;;;5031884;28;20090;-47
2021/12/02 06:35:53;;;;;;;2.70;2.10;;;;;;;;;;5032131;28;20087;-46
2021/12/02 06:38:18;;;;;;;2.60;2.17;;;;;;;;;;5035993;28;20033;-48
2021/12/02 06:40:45;;;;;;;2.70;2.25;;;;;;;;;;5031472;28;20047;-46
2021/12/02 06:43:13;;;;;;;2.70;2.25;;;;;;;;;;5034336;28;20554;-46
2021/12/02 06:45:39;;;;;;;2.60;2.03;;;;;;;;;;5034015;28;20091;-47
2021/12/02 06:48:04;;;;;;;3.53;2.80;;;;;;;;;;5035065;28;20470;-46
2021/12/02 06:50:31;;;;;;;2.70;2.35;;;;;;;;;;5033108;28;20391;-47
2021/12/02 06:52:57;;;;;;;2.60;2.05;;;;;;;;;;5031546;28;20064;-47
2021/12/02 06:55:23;;;;;;;2.80;2.30;;;;;;;;;;5035276;28;20033;-46
2021/12/02 06:57:48;;;;;;;3.25;2.63;;;;;;;;;;5033469;28;20062;-45
2021/12/02 07:00:16;;;;;;;2.72;2.10;;;;;;;;;;5031425;28;20291;-46
2021/12/02 07:02:42;;;;;;;5.70;2.97;;;;;;;;;;5031692;28;20071;-46
2021/12/02 07:05:10;;;;;;;5.10;2.42;;;;;;;;;;5031842;28;20304;-47
2021/12/02 07:07:37;;;;;;;2.75;2.25;;;;;;;;;;5034386;28;20044;-46
2021/12/02 07:10:05;;;;;;;3.25;2.70;;;;;;;;;;5034821;28;20467;-47
2021/12/02 07:12:33;;;;;;;2.80;2.40;;;;;;;;;;5030352;28;20063;-46
2021/12/02 07:15:05;;;;;;;2.80;2.33;;;;;;;;;;5034201;28;20943;-47
2021/12/02 07:17:32;;;;;;;2.60;2.10;;;;;;;;;;5032155;28;20043;-46
2021/12/02 07:19:58;;;;;;;2.80;2.30;;;;;;;;;;5026995;28;20038;-46
2021/12/02 07:22:23;;;;;;;2.60;2.08;;;;;;;;;;5034686;28;20474;-48
2021/12/02 07:24:48;;;;;;;2.80;2.25;;;;;;;;;;5032597;28;20084;-47
2021/12/02 07:27:14;;;;;;;2.72;2.30;;;;;;;;;;5033980;28;20033;-50
2021/12/02 07:29:41;;;;;;;2.65;2.10;;;;;;;;;;5030830;28;20083;-46
2021/12/02 07:32:10;;;;;;;3.35;2.60;;;;;;;;;;5030158;28;20037;-48
2021/12/02 07:34:43;;;;;;;2.72;2.33;;;;;;;;;;5035172;28;20095;-51
2021/12/02 07:37:11;;;;;;;4.95;2.70;;;;;;;;;;5036308;28;20107;-48
2021/12/02 07:39:36;;;;;;;2.60;2.10;;;;;;;;;;5036146;28;20068;-50
2021/12/02 07:42:02;;;;;;;2.78;2.20;;;;;;;;;;5033389;28;20497;-50
2021/12/02 07:44:28;;;;;;;8.63;2.83;;;;;;;;;;5035264;28;20561;-53
2021/12/02 07:46:55;;;;;;;2.60;2.05;;;;;;;;;;5037809;28;20393;-51
2021/12/02 07:49:21;;;;;;;2.80;2.30;;;;;;;;;;5035838;28;20025;-50
2021/12/02 07:51:50;;;;;;;2.70;2.30;;;;;;;;;;5039257;28;20047;-48
2021/12/02 07:54:17;;;;;;;2.80;2.30;;;;;;;;;;5040486;28;20466;-51
2021/12/02 07:56:46;;;;;;;2.83;2.38;;;;;;;;;;5035479;28;20133;-51
2021/12/02 07:59:16;;;;;;;2.70;2.33;;;;;;;;;;5032792;28;20102;-49
2021/12/02 08:01:42;;;;;;;2.60;2.03;;;;;;;;;;5033600;28;20107;-48
2021/12/02 08:04:08;;;;;;;3.70;2.28;;;;;;;;;;5034201;28;20036;-50
2021/12/02 08:06:33;;;;;;;2.60;2.00;;;;;;;;;;5032839;28;20049;-50
2021/12/02 08:08:58;;;;;;;2.90;2.30;;;;;;;;;;5038000;28;20047;-49
2021/12/02 08:11:24;;;;;;;3.00;2.20;;;;;;;;;;5035714;28;20029;-51
2021/12/02 08:13:51;;;;;;;2.80;2.30;;;;;;;;;;5035643;28;20377;-48
2021/12/02 08:16:20;;;;;;;2.63;2.10;;;;;;;;;;5034643;28;20087;-50
2021/12/02 08:18:45;;;;;;;2.60;2.10;;;;;;;;;;5037507;28;20091;-51
2021/12/02 08:21:10;;;;;;;2.80;2.40;;;;;;;;;;5034939;28;20036;-50
2021/12/02 08:23:36;;;;;;;2.70;2.28;;;;;;;;;;5039916;28;20451;-49
2021/12/02 08:26:01;;;;;;;2.92;2.40;;;;;;;;;;5036963;28;20029;-51
2021/12/02 08:28:28;;;;;;;3.67;2.20;;;;;;;;;;5036508;28;20459;-51
2021/12/02 08:30:54;;;;;;;2.60;2.10;;;;;;;;;;5033682;28;20464;-49
2021/12/02 08:33:20;;;;;;;2.85;2.42;;;;;;;;;;5035661;28;20029;-49
2021/12/02 08:35:46;;;;;;;2.70;2.30;;;;;;;;;;5034046;28;20052;-51
2021/12/02 08:38:13;;;;;;;2.70;2.33;;;;;;;;;;5036731;28;20053;-52
2021/12/02 08:40:40;;;;;;;2.75;2.40;;;;;;;;;;5035083;28;20039;-53
2021/12/02 08:43:08;;;;;;;2.65;2.20;;;;;;;;;;5039461;28;20030;-53
2021/12/02 08:45:35;;;;;;;3.10;2.60;;;;;;;;;;5034122;28;20029;-53
2021/12/02 08:48:03;;;;;;;3.97;2.35;;;;;;;;;;5037574;28;20351;-50
2021/12/02 08:50:29;;;;;;;2.85;2.17;;;;;;;;;;5036131;28;20962;-50
2021/12/02 08:52:57;;;;;;;2.72;2.38;;;;;;;;;;5034464;28;20478;-50
2021/12/02 08:55:25;;;;;;;3.67;2.65;;;;;;;;;;5033842;28;20030;-51
2021/12/02 08:57:51;;;;;;;4.00;2.33;;;;;;;;;;5032344;28;20079;-52
2021/12/02 09:00:20;;;;;;;2.80;2.30;;;;;;;;;;5036297;28;20439;-50
2021/12/02 09:02:46;;;;;;;2.70;2.30;;;;;;;;;;5037096;28;20037;-52
2021/12/02 09:05:11;;;;;;;3.00;2.22;;;;;;;;;;5036498;28;20038;-50
2021/12/02 09:07:37;;;;;;;2.70;2.20;;;;;;;;;;5039650;28;20041;-51
2021/12/02 09:10:04;;;;;;;2.70;2.22;;;;;;;;;;5038902;28;20052;-54
2021/12/02 09:12:30;;;;;;;2.70;2.22;;;;;;;;;;5036729;28;20037;-54
2021/12/02 09:14:55;;;;;;;3.13;2.80;;;;;;;;;;5019188;28;20082;-51
2021/12/02 09:17:21;;;;;;;2.80;2.38;;;;;;;;;;5035083;28;20458;-54
2021/12/02 09:19:46;;;;;;;3.42;2.50;;;;;;;;;;5031087;28;20128;-52
2021/12/02 09:22:11;;;;;;;2.70;2.20;;;;;;;;;;5036987;28;20043;-51
2021/12/02 09:24:39;;;;;;;2.70;2.22;;;;;;;;;;5034865;28;20045;-52
2021/12/02 09:27:04;;;;;;;2.75;2.33;;;;;;;;;;5036468;28;20076;-54
2021/12/02 09:29:29;;;;;;;3.45;2.58;;;;;;;;;;5033996;28;20110;-53
2021/12/02 09:31:55;;;;;;;2.70;2.20;;;;;;;;;;5035279;28;20067;-53
2021/12/02 09:34:21;;;;;;;2.88;2.33;;;;;;;;;;5037286;28;20108;-53
2021/12/02 09:36:47;;;;;;;2.70;2.15;;;;;;;;;;5033070;28;20138;-55
2021/12/02 09:39:14;;;;;;;3.70;2.95;;;;;;;;;;5038268;28;20112;-55
2021/12/02 09:41:40;;;;;;;2.97;2.35;;;;;;;;;;5037744;28;20129;-54
2021/12/02 09:44:06;;;;;;;7.65;2.58;;;;;;;;;;5036960;28;20064;-55
2021/12/02 09:46:33;;;;;;;2.58;2.05;;;;;;;;;;5032985;28;20036;-54
2021/12/02 09:49:00;;;;;;;2.67;2.22;;;;;;;;;;5037742;28;20033;-54
2021/12/02 09:51:31;;;;;;;2.70;2.17;;;;;;;;;;5037705;28;20033;-54
2021/12/02 09:54:01;;;;;;;2.72;2.30;;;;;;;;;;5036831;28;20038;-54
2021/12/02 09:56:32;;;;;;;2.70;2.10;;;;;;;;;;5033565;28;20041;-55
2021/12/02 09:59:09;;;;;;;3.00;2.30;;;;;;;;;;5034738;28;20041;-52
2021/12/02 10:01:48;;;;;;;2.65;2.22;;;;;;;;;;5036093;28;20036;-55
2021/12/02 10:04:14;;;;;;;2.50;1.90;;;;;;;;;;5036715;28;20494;-54
2021/12/02 10:06:41;;;;;;;3.17;2.38;;;;;;;;;;5035337;28;20026;-54
2021/12/02 10:09:25;;;;;;;2.97;2.47;;;;;;;;;;5033426;28;20044;-55
2021/12/02 10:12:00;;;;;;;4.00;2.40;;;;;;;;;;5035359;28;20048;-54
2021/12/02 10:14:43;;;;;;;3.00;2.45;;;;;;;;;;5035478;28;20026;-54
2021/12/02 10:17:24;;;;;;;3.10;2.63;;;;;;;;;;5036802;28;20371;-55
2021/12/02 10:23:22;;;;;;;4.50;2.50;;;;;;;;;;5036088;28;20045;-54
2021/12/02 10:25:56;;;;;;;2.67;2.08;;;;;;;;;;5033728;28;20033;-55
2021/12/02 10:28:23;;;;;;;2.60;2.20;;;;;;;;;;5033872;28;20040;-54
2021/12/02 10:31:02;;;;;;;2.83;2.47;;;;;;;;;;5037157;28;20090;-54
2021/12/02 10:33:32;;;;;;;2.95;2.50;;;;;;;;;;5033574;28;20056;-54
2021/12/02 10:35:59;;;;;;;2.90;2.45;;;;;;;;;;5033693;28;20475;-54
2021/12/02 10:38:32;;;;;;;2.60;2.00;;;;;;;;;;5033889;28;20067;-53
2021/12/02 10:41:00;;;;;;;4.15;2.80;;;;;;;;;;5035451;28;20438;-50
2021/12/02 10:43:25;;;;;;;3.03;2.40;;;;;;;;;;5037057;28;20284;-50
2021/12/02 10:45:51;;;;;;;2.83;2.25;;;;;;;;;;5034186;28;20048;-54
2021/12/02 10:48:16;;;;;;;2.70;2.13;;;;;;;;;;5033309;28;20041;-52
2021/12/02 10:50:42;;;;;;;2.70;2.20;;;;;;;;;;5032388;28;20030;-52
2021/12/02 10:53:07;;;;;;;3.00;2.70;;;;;;;;;;5040242;28;20406;-51
2021/12/02 10:55:33;;;;;;;2.60;2.13;;;;;;;;;;5033802;28;20047;-51
2021/12/02 10:58:00;;;;;;;2.75;2.22;;;;;;;;;;5035217;28;20058;-54
2021/12/02 11:00:28;;;;;;;3.00;2.53;;;;;;;;;;5035101;28;20546;-54
2021/12/02 11:02:56;;;;;;;2.63;2.03;;;;;;;;;;5033531;28;20064;-54
2021/12/02 11:05:32;;;;;;;2.80;2.35;;;;;;;;;;5033570;28;20033;-54
2021/12/02 11:08:06;;;;;;;2.70;2.25;;;;;;;;;;5033462;28;20029;-53
2021/12/02 11:10:37;;;;;;;3.08;2.45;;;;;;;;;;5034170;28;20483;-52
2021/12/02 11:13:03;;;;;;;;;;;;;;;;;;5032862;28;20083;-54
2021/12/02 11:15:30;;;;;;;3.17;2.78;;;;;;;;;;5033104;28;19963;-53
2021/12/02 11:17:58;;;;;;;2.60;2.05;;;;;;;;;;5036532;28;20449;-55
2021/12/02 11:20:26;;;;;;;2.70;2.20;;;;;;;;;;5038388;28;20044;-53
2021/12/02 11:23:19;;;;;;;2.72;2.33;;;;;;;;;;5037208;28;20037;-54
2021/12/02 11:25:53;;;;;;;2.60;2.00;;;;;;;;;;5038882;28;20037;-55
2021/12/02 11:28:22;;;;;;;2.60;2.00;;;;;;;;;;5038953;28;20033;-55
2021/12/02 11:30:48;;;;;;;2.60;1.98;;;;;;;;;;5036352;28;20576;-55
2021/12/02 11:33:18;;;;;;;2.60;1.90;;;;;;;;;;5035701;28;20033;-53
2021/12/02 11:35:45;;;;;;;2.75;2.33;;;;;;;;;;5034042;28;20065;-54
2021/12/02 11:38:16;;;;;;;2.60;1.98;;;;;;;;;;5042135;28;20558;-51
2021/12/02 11:40:48;;;;;;;2.90;2.33;;;;;;;;;;5037654;28;20137;-53
2021/12/02 11:43:16;;;;;;;2.53;1.90;;;;;;;;;;5039060;28;20040;-54
2021/12/02 11:45:46;;;;;;;2.60;2.10;;;;;;;;;;5034354;28;20029;-55
2021/12/02 11:48:34;;;;;;;2.70;2.10;;;;;;;;;;5038978;28;20029;-54
2021/12/02 11:51:02;;;;;;;2.80;2.42;;;;;;;;;;5035989;28;20029;-54
2021/12/02 11:53:28;;;;;;;2.60;2.10;;;;;;;;;;5035873;28;20033;-51
2021/12/02 11:56:02;;;;;;;2.50;1.85;;;;;;;;;;5035611;28;20112;-50
2021/12/02 11:58:29;;;;;;;2.63;2.08;;;;;;;;;;5035457;28;20041;-51
2021/12/02 12:00:55;;;;;;;2.75;2.30;;;;;;;;;;5037487;28;20025;-54
2021/12/02 12:03:37;;;;;;;2.70;2.25;;;;;;;;;;5041292;28;20459;-54
2021/12/02 12:06:08;;;;;;;2.75;2.13;;;;;;;;;;5039146;28;20033;-54
2021/12/02 12:08:37;;;;;;;2.70;2.20;;;;;;;;;;5038929;28;20033;-53
2021/12/02 12:11:23;;;;;;;2.80;2.38;;;;;;;;;;5037296;28;20498;-51
2021/12/02 12:14:04;;;;;;;2.85;2.55;;;;;;;;;;5038209;28;20469;-54
2021/12/02 12:16:31;;;;;;;;;;;;;;;;;;5035859;28;20041;-54
2021/12/02 12:19:30;;;;;;;2.90;2.30;;;;;;;;;;5040683;28;20325;-55
2021/12/02 12:22:17;;;;;;;2.65;2.13;;;;;;;;;;5039107;28;20510;-55
2021/12/02 12:24:49;;;;;;;3.83;2.58;;;;;;;;;;5028843;28;20482;-55
2021/12/02 12:27:21;;;;;;;2.63;2.20;;;;;;;;;;5035462;28;20042;-54
2021/12/02 12:30:10;;;;;;;2.72;2.33;;;;;;;;;;5037486;28;20033;-54
2021/12/02 12:38:26;;;;;;;2.90;2.45;;;;;;;;;;5029841;28;20088;-55
2021/12/02 12:41:14;;;;;;;2.70;2.28;;;;;;;;;;5041210;28;20112;-55
2021/12/02 12:43:49;;;;;;;2.70;2.30;;;;;;;;;;5037060;28;20107;-55
2021/12/02 12:46:26;;;;;;;3.88;2.92;;;;;;;;;;5034483;28;20104;-56
2021/12/02 12:48:54;;;;;;;2.97;2.22;;;;;;;;;;5034315;28;20509;-55
2021/12/02 12:51:22;;;;;;;3.05;2.63;;;;;;;;;;5034405;28;20021;-55
2021/12/02 12:53:50;;;;;;;3.60;2.78;;;;;;;;;;5035314;28;20044;-56
2021/12/02 12:56:18;;;;;;;2.80;2.42;;;;;;;;;;5034936;28;20037;-55
2021/12/02 12:58:52;;;;;;;2.85;2.53;;;;;;;;;;5037888;28;20025;-56
2021/12/02 13:01:20;;;;;;;2.60;2.15;;;;;;;;;;5036990;28;20036;-54
2021/12/02 13:04:27;;;;;;;3.45;2.58;;;;;;;;;;5037570;28;20030;-56
2021/12/02 13:07:05;;;;;;;3.13;2.83;;;;;;;;;;5038222;28;20052;-55
2021/12/02 13:09:59;;;;;;;2.60;2.00;;;;;;;;;;5035950;28;20041;-55
2021/12/02 13:12:46;;;;;;;2.75;2.38;;;;;;;;;;5037515;28;20367;-55
2021/12/02 13:15:15;;;;;;;2.70;2.20;;;;;;;;;;5037095;28;20038;-55
2021/12/02 13:17:47;;;;;;;2.70;2.13;;;;;;;;;;5036735;28;20084;-55
2021/12/02 13:20:26;;;;;;;3.10;2.45;;;;;;;;;;5034258;28;20075;-55
2021/12/02 13:23:16;;;;;;;2.65;2.22;;;;;;;;;;5036967;28;20087;-56
2021/12/02 13:25:50;;;;;;;4.95;2.88;;;;;;;;;;5037293;28;20469;-52
2021/12/02 13:28:23;;;;;;;2.70;2.35;;;;;;;;;;5038134;28;20037;-54
2021/12/02 13:30:54;;;;;;;3.08;2.30;;;;;;;;;;5032937;28;20037;-54
2021/12/02 13:33:31;;;;;;;2.78;2.30;;;;;;;;;;5034328;28;20048;-55
2021/12/02 13:35:56;;;;;;;2.67;2.08;;;;;;;;;;5033648;28;20041;-55
2021/12/02 13:38:21;;;;;;;2.78;2.20;;;;;;;;;;5035848;28;20029;-54
2021/12/02 13:40:47;;;;;;;2.70;2.25;;;;;;;;;;5038221;28;20029;-55
2021/12/02 13:43:14;;;;;;;2.50;2.00;;;;;;;;;;5034936;28;20068;-54
2021/12/02 13:45:39;;;;;;;2.85;2.55;;;;;;;;;;5033766;28;20044;-51
2021/12/02 13:48:16;;;;;;;2.70;2.22;;;;;;;;;;5038249;28;20030;-55
2021/12/02 13:50:43;;;;;;;2.80;2.30;;;;;;;;;;5034789;28;20037;-54
2021/12/02 13:53:09;;;;;;;2.60;2.00;;;;;;;;;;5035849;28;20560;-55
2021/12/02 13:55:40;;;;;;;2.50;1.80;;;;;;;;;;5034560;28;20034;-54
2021/12/02 14:00:48;;;;;;;3.15;2.30;;;;;;;;;;5032188;28;20401;-54
2021/12/02 14:03:19;;;;;;;2.70;2.20;;;;;;;;;;5036796;28;20041;-54
2021/12/02 14:05:52;;;;;;;2.78;2.22;;;;;;;;;;5034787;28;20467;-55
2021/12/02 14:08:20;;;;;;;2.60;2.10;;;;;;;;;;5036415;28;20136;-54
2021/12/02 14:10:47;;;;;;;2.70;2.28;;;;;;;;;;5036032;28;20022;-53
2021/12/02 14:13:33;;;;;;;2.90;2.40;;;;;;;;;;5036556;28;20029;-55
2021/12/02 14:16:06;;;;;;;2.72;2.10;;;;;;;;;;5034805;28;20041;-55
2021/12/02 14:18:35;;;;;;;2.60;2.03;;;;;;;;;;5035190;28;20139;-53
2021/12/02 14:21:06;;;;;;;2.60;2.00;;;;;;;;;;5031889;28;20139;-55
2021/12/02 14:23:36;;;;;;;;;;;;;;;;;;5034645;28;20497;-54
2021/12/02 14:26:24;;;;;;;2.80;2.22;;;;;;;;;;5036957;28;19912;-55
2021/12/02 14:28:54;;;;;;;3.78;3.25;;;;;;;;;;5035066;28;20489;-55
2021/12/02 14:31:25;;;;;;;2.90;2.60;;;;;;;;;;5034555;28;20064;-54
2021/12/02 14:33:53;;;;;;;3.28;2.30;;;;;;;;;;5035386;28;20060;-55
2021/12/02 14:36:21;;;;;;;2.85;2.42;;;;;;;;;;5034003;28;20056;-54
2021/12/02 14:39:07;;;;;;;3.83;2.67;;;;;;;;;;5032618;28;20068;-51
2021/12/02 14:41:42;;;;;;;2.97;2.42;;;;;;;;;;5035364;28;20043;-53
2021/12/02 14:44:11;;;;;;;2.70;2.17;;;;;;;;;;5033735;28;20041;-54
2021/12/02 14:46:46;;;;;;;2.80;2.30;;;;;;;;;;5031599;28;20474;-53
2021/12/02 14:49:31;;;;;;;4.25;2.50;;;;;;;;;;5034374;28;20055;-51
2021/12/02 14:52:03;;;;;;;3.00;2.30;;;;;;;;;;5037214;28;20083;-54
2021/12/02 14:54:36;;;;;;;;;;;;;;;;;;5037387;28;20036;-52
2021/12/02 14:57:05;;;;;;;3.08;2.50;;;;;;;;;;5038780;28;20269;-54
2021/12/02 14:59:35;;;;;;;2.70;2.30;;;;;;;;;;5034960;28;20044;-54
2021/12/02 15:02:04;;;;;;;2.97;2.28;;;;;;;;;;5031488;28;20107;-53
2021/12/02 15:04:32;;;;;;;3.58;2.50;;;;;;;;;;5035732;28;20459;-54
2021/12/02 15:07:07;;;;;;;3.03;2.42;;;;;;;;;;5033054;28;20455;-55
2021/12/02 15:09:35;;;;;;;2.70;2.25;;;;;;;;;;5034578;28;20045;-54
2021/12/02 15:12:08;;;;;;;2.70;2.13;;;;;;;;;;5034240;28;20210;-55